createdAt,value
2018-02-01T00:01:04.326Z,85.84
2018-02-01T00:03:31.704Z,85.56
2018-02-01T00:05:59.134Z,85.27
2018-02-01T00:08:26.670Z,84.90
2018-02-01T00:10:54.099Z,85.08
2018-02-01T00:13:21.530Z,85.62
2018-02-01T00:15:48.914Z,85.72
2018-02-01T00:18:16.315Z,85.55
2018-02-01T00:20:43.747Z,86.11
2018-02-01T00:23:11.137Z,85.86
2018-02-01T00:25:38.524Z,85.44
2018-02-01T00:28:05.998Z,85.08
2018-02-01T00:30:33.395Z,84.70
2018-02-01T00:33:00.790Z,85.76
2018-02-01T00:35:28.186Z,86.01
2018-02-01T00:37:55.561Z,85.14
2018-02-01T00:40:22.971Z,85.15
2018-02-01T00:42:50.418Z,85.36
2018-02-01T00:45:17.850Z,85.55
2018-02-01T00:47:45.240Z,85.29
2018-02-01T00:50:12.637Z,85.31
2018-02-01T00:52:40.039Z,85.67
2018-02-01T00:55:07.407Z,86.18
2018-02-01T00:57:34.809Z,86.10
2018-02-01T01:00:02.184Z,85.52
2018-02-01T01:02:29.650Z,85.45
2018-02-01T01:04:57.030Z,85.14
2018-02-01T01:07:24.427Z,84.74
2018-02-01T01:09:51.834Z,84.18
2018-02-01T01:12:19.226Z,84.42
2018-02-01T01:14:46.609Z,84.64
2018-02-01T01:17:14.014Z,84.85
2018-02-01T01:19:41.391Z,85.51
2018-02-01T01:22:08.775Z,85.73
2018-02-01T01:24:36.192Z,85.78
2018-02-01T01:27:03.582Z,86.23
2018-02-01T01:29:30.975Z,86.21
2018-02-01T01:31:58.367Z,86.80
2018-02-01T01:34:25.769Z,86.98
2018-02-01T01:36:53.206Z,87.98
2018-02-01T01:39:20.634Z,87.71
2018-02-01T01:41:48.021Z,87.65
2018-02-01T01:44:15.404Z,87.79
2018-02-01T01:46:42.818Z,88.15
2018-02-01T01:49:10.226Z,87.69
2018-02-01T01:51:37.611Z,87.72
2018-02-01T01:54:04.990Z,88.13
2018-02-01T01:56:32.394Z,88.38
2018-02-01T01:58:59.833Z,87.36
2018-02-01T02:01:27.250Z,86.51
2018-02-01T02:03:54.646Z,86.90
2018-02-01T02:06:22.058Z,88.11
2018-02-01T02:08:49.461Z,88.37
2018-02-01T02:11:16.866Z,87.76
2018-02-01T02:13:44.372Z,87.92
2018-02-01T02:16:11.753Z,87.62
2018-02-01T02:18:39.182Z,88.22
2018-02-01T02:21:06.630Z,88.42
2018-02-01T02:23:34.025Z,88.25
2018-02-01T02:26:01.480Z,88.39
2018-02-01T02:28:28.858Z,88.09
2018-02-01T02:30:56.330Z,88.03
2018-02-01T02:33:23.730Z,87.92
2018-02-01T02:35:51.150Z,88.16
2018-02-01T02:38:18.539Z,87.49
2018-02-01T02:40:45.939Z,88.31
2018-02-01T02:43:13.340Z,88.12
2018-02-01T02:45:40.732Z,87.50
2018-02-01T02:48:08.118Z,87.48
2018-02-01T02:50:35.501Z,87.38
2018-02-01T02:53:02.905Z,87.13
2018-02-01T02:55:30.296Z,87.27
2018-02-01T02:57:57.680Z,87.26
2018-02-01T03:00:25.081Z,86.98
2018-02-01T03:02:52.486Z,87.88
2018-02-01T03:05:19.885Z,87.65
2018-02-01T03:07:47.274Z,87.89
2018-02-01T03:10:14.663Z,87.98
2018-02-01T03:12:42.071Z,88.33
2018-02-01T03:15:09.587Z,88.03
2018-02-01T03:17:36.999Z,87.15
2018-02-01T03:20:04.382Z,87.01
2018-02-01T03:22:31.792Z,86.89
2018-02-01T03:24:59.250Z,86.68
2018-02-01T03:27:26.634Z,86.21
2018-02-01T03:29:54.054Z,85.61
2018-02-01T03:32:21.446Z,85.90
2018-02-01T03:34:48.881Z,86.49
2018-02-01T03:37:16.283Z,85.93
2018-02-01T03:39:43.671Z,86.43
2018-02-01T03:42:11.071Z,86.71
2018-02-01T03:44:38.486Z,86.25
2018-02-01T03:47:05.916Z,86.69
2018-02-01T03:49:33.314Z,87.23
2018-02-01T03:52:00.719Z,87.05
2018-02-01T03:54:28.215Z,86.82
2018-02-01T03:56:55.611Z,86.50
2018-02-01T03:59:22.999Z,86.82
2018-02-01T04:01:50.406Z,87.69
2018-02-01T04:04:17.835Z,87.73
2018-02-01T04:06:45.214Z,87.12
2018-02-01T04:09:12.618Z,87.26
2018-02-01T04:11:40.010Z,87.04
2018-02-01T04:14:07.425Z,87.22
2018-02-01T04:16:34.799Z,86.79
2018-02-01T04:19:02.207Z,87.89
2018-02-01T04:21:29.621Z,88.37
2018-02-01T04:23:57.006Z,88.61
2018-02-01T04:26:24.417Z,88.29
2018-02-01T04:28:51.830Z,88.02
2018-02-01T04:31:19.354Z,88.33
2018-02-01T04:33:46.807Z,87.80
2018-02-01T04:36:14.258Z,86.96
2018-02-01T04:38:41.675Z,86.56
2018-02-01T04:41:09.052Z,86.51
2018-02-01T04:43:36.476Z,86.42
2018-02-01T04:46:03.892Z,86.24
2018-02-01T04:48:31.338Z,86.47
2018-02-01T04:50:58.729Z,86.99
2018-02-01T04:53:26.155Z,87.33
2018-02-01T04:55:53.540Z,88.17
2018-02-01T04:58:20.934Z,88.78
2018-02-01T05:00:48.338Z,88.72
2018-02-01T05:03:15.742Z,88.67
2018-02-01T05:05:43.134Z,88.09
2018-02-01T05:08:10.570Z,88.31
2018-02-01T05:10:37.967Z,88.47
2018-02-01T05:13:05.350Z,88.98
2018-02-01T05:15:32.742Z,88.28
2018-02-01T05:18:00.262Z,88.62
2018-02-01T05:20:27.647Z,88.39
2018-02-01T05:22:55.043Z,89.07
2018-02-01T05:25:22.465Z,88.54
2018-02-01T05:27:49.848Z,88.04
2018-02-01T05:30:17.269Z,87.55
2018-02-01T05:32:44.695Z,87.48
2018-02-01T05:35:12.100Z,87.61
2018-02-01T05:37:39.492Z,88.05
2018-02-01T05:40:06.882Z,88.19
2018-02-01T05:42:34.302Z,88.40
2018-02-01T05:45:01.693Z,88.28
2018-02-01T05:47:29.105Z,88.22
2018-02-01T05:49:56.534Z,88.00
2018-02-01T05:52:23.934Z,88.01
2018-02-01T05:54:51.313Z,87.82
2018-02-01T05:57:18.706Z,87.83
2018-02-01T05:59:46.212Z,88.18
2018-02-01T06:02:14.587Z,87.61
2018-02-01T06:04:41.986Z,87.43
2018-02-01T06:07:09.374Z,87.65
2018-02-01T06:09:36.907Z,88.18
2018-02-01T06:12:04.270Z,88.52
2018-02-01T06:14:31.676Z,88.95
2018-02-01T06:16:59.064Z,89.02
2018-02-01T06:19:26.489Z,89.26
2018-02-01T06:21:53.900Z,89.08
2018-02-01T06:24:21.310Z,88.85
2018-02-01T06:26:48.826Z,88.83
2018-02-01T06:29:16.192Z,88.83
2018-02-01T06:31:43.582Z,89.03
2018-02-01T06:34:10.992Z,88.97
2018-02-01T06:36:38.383Z,88.92
2018-02-01T06:39:05.819Z,89.15
2018-02-01T06:41:33.237Z,88.85
2018-02-01T06:44:00.687Z,89.32
2018-02-01T06:46:28.116Z,89.27
2018-02-01T06:48:55.506Z,88.83
2018-02-01T06:51:22.899Z,88.46
2018-02-01T06:53:50.299Z,88.62
2018-02-01T06:56:17.697Z,88.51
2018-02-01T06:58:45.266Z,88.41
2018-02-01T07:01:15.450Z,88.46
2018-02-01T07:03:42.838Z,87.87
2018-02-01T07:06:10.225Z,87.94
2018-02-01T07:08:37.637Z,88.09
2018-02-01T07:11:05.179Z,88.19
2018-02-01T07:13:32.637Z,87.68
2018-02-01T07:16:00.040Z,87.00
2018-02-01T07:18:27.430Z,86.97
2018-02-01T07:20:54.819Z,87.99
2018-02-01T07:23:22.216Z,87.96
2018-02-01T07:25:49.701Z,87.55
2018-02-01T07:28:17.963Z,87.67
2018-02-01T07:30:45.370Z,87.75
2018-02-01T07:33:12.768Z,87.87
2018-02-01T07:35:40.162Z,87.80
2018-02-01T07:38:07.572Z,87.05
2018-02-01T07:40:35.027Z,86.68
2018-02-01T07:43:02.427Z,86.61
2018-02-01T07:45:30.715Z,86.29
2018-02-01T07:47:58.187Z,86.18
2018-02-01T07:50:25.616Z,86.13
2018-02-01T07:52:53.022Z,85.26
2018-02-01T07:55:20.415Z,85.06
2018-02-01T07:57:47.802Z,85.34
2018-02-01T08:00:15.251Z,85.16
2018-02-01T08:02:42.660Z,84.21
2018-02-01T08:05:10.099Z,82.91
2018-02-01T08:07:37.602Z,81.18
2018-02-01T08:10:04.998Z,79.86
2018-02-01T08:12:32.419Z,77.16
2018-02-01T08:14:59.806Z,74.59
2018-02-01T08:17:27.211Z,72.34
2018-02-01T08:19:54.610Z,71.50
2018-02-01T08:22:22.022Z,69.90
2018-02-01T08:24:49.419Z,68.85
2018-02-01T08:27:16.963Z,68.73
2018-02-01T08:29:44.473Z,67.04
2018-02-01T08:32:11.995Z,65.56
2018-02-01T08:34:39.375Z,64.18
2018-02-01T08:37:06.812Z,64.10
2018-02-01T08:39:34.155Z,64.75
2018-02-01T08:42:01.555Z,62.29
2018-02-01T08:44:28.991Z,62.30
2018-02-01T08:46:56.462Z,61.62
2018-02-01T08:49:23.853Z,60.69
2018-02-01T08:51:51.238Z,58.24
2018-02-01T08:54:18.637Z,57.90
2018-02-01T08:56:46.026Z,58.68
2018-02-01T08:59:13.426Z,57.45
2018-02-01T09:01:40.879Z,56.26
2018-02-01T09:04:08.293Z,54.87
2018-02-01T09:06:35.688Z,54.46
2018-02-01T09:09:03.127Z,54.26
2018-02-01T09:11:30.563Z,54.98
2018-02-01T09:13:57.927Z,57.33
2018-02-01T09:16:25.314Z,57.45
2018-02-01T09:18:52.713Z,56.88
2018-02-01T09:21:20.153Z,57.26
2018-02-01T09:23:47.614Z,59.23
2018-02-01T09:26:14.994Z,60.61
2018-02-01T09:28:42.398Z,61.71
2018-02-01T09:31:09.782Z,61.90
2018-02-01T09:33:37.183Z,62.97
2018-02-01T09:36:04.563Z,61.34
2018-02-01T09:38:32.067Z,61.43
2018-02-01T09:40:59.445Z,62.33
2018-02-01T09:43:26.831Z,64.52
2018-02-01T09:45:54.231Z,67.51
2018-02-01T09:48:21.624Z,67.18
2018-02-01T09:50:49.014Z,68.47
2018-02-01T09:53:16.413Z,69.94
2018-02-01T09:55:43.806Z,71.67
2018-02-01T09:58:11.195Z,72.40
2018-02-01T10:00:38.597Z,74.59
2018-02-01T10:03:06.015Z,74.71
2018-02-01T10:05:33.448Z,75.63
2018-02-01T10:08:00.826Z,75.75
2018-02-01T10:10:28.218Z,76.38
2018-02-01T10:12:55.727Z,77.30
2018-02-01T10:15:23.108Z,77.77
2018-02-01T10:17:50.538Z,78.46
2018-02-01T10:20:17.946Z,78.21
2018-02-01T10:22:45.351Z,78.37
2018-02-01T10:25:12.753Z,79.62
2018-02-01T10:27:40.141Z,79.71
2018-02-01T10:30:07.562Z,79.43
2018-02-01T10:32:35.337Z,79.47
2018-02-01T10:35:02.751Z,79.71
2018-02-01T10:37:30.134Z,79.81
2018-02-01T10:39:57.522Z,79.41
2018-02-01T10:42:24.910Z,78.04
2018-02-01T10:44:52.298Z,78.46
2018-02-01T10:47:19.682Z,78.87
2018-02-01T10:49:47.074Z,78.48
2018-02-01T10:52:14.464Z,78.27
2018-02-01T10:54:41.887Z,78.27
2018-02-01T10:57:09.292Z,76.57
2018-02-01T10:59:36.686Z,76.38
2018-02-01T11:02:04.070Z,77.12
2018-02-01T11:04:31.467Z,76.92
2018-02-01T11:06:58.852Z,76.98
2018-02-01T11:09:26.249Z,76.22
2018-02-01T11:11:53.665Z,76.18
2018-02-01T11:14:21.060Z,76.42
2018-02-01T11:16:48.454Z,77.00
2018-02-01T11:19:15.871Z,77.02
2018-02-01T11:21:43.272Z,75.80
2018-02-01T11:24:10.664Z,75.82
2018-02-01T11:26:38.156Z,75.81
2018-02-01T11:29:05.635Z,75.73
2018-02-01T11:31:33.122Z,76.79
2018-02-01T11:34:00.507Z,76.53
2018-02-01T11:36:28.004Z,76.57
2018-02-01T11:38:55.414Z,76.43
2018-02-01T11:41:22.914Z,76.33
2018-02-01T11:43:50.398Z,76.08
2018-02-01T11:46:17.814Z,76.28
2018-02-01T11:48:45.202Z,77.44
2018-02-01T11:51:12.675Z,77.77
2018-02-01T11:53:40.094Z,77.66
2018-02-01T11:56:07.481Z,77.56
2018-02-01T11:58:34.868Z,76.57
2018-02-01T12:01:02.261Z,77.32
2018-02-01T12:03:29.670Z,76.89
2018-02-01T12:05:57.074Z,77.84
2018-02-01T12:08:24.471Z,77.80
2018-02-01T12:10:51.862Z,77.67
2018-02-01T12:13:19.242Z,76.87
2018-02-01T12:15:46.629Z,76.71
2018-02-01T12:18:14.014Z,76.54
2018-02-01T12:20:41.402Z,76.81
2018-02-01T12:23:08.804Z,76.20
2018-02-01T12:25:36.339Z,76.64
2018-02-01T12:28:03.727Z,76.61
2018-02-01T12:30:31.126Z,76.84
2018-02-01T12:32:58.586Z,76.28
2018-02-01T12:35:25.980Z,76.73
2018-02-01T12:37:53.394Z,75.19
2018-02-01T12:40:20.781Z,75.02
2018-02-01T12:42:48.176Z,74.83
2018-02-01T12:45:15.571Z,75.49
2018-02-01T12:47:42.953Z,75.21
2018-02-01T12:50:10.359Z,75.00
2018-02-01T12:52:37.762Z,74.83
2018-02-01T12:55:05.188Z,75.07
2018-02-01T12:57:32.932Z,75.02
2018-02-01T13:00:00.372Z,75.13
2018-02-01T13:02:27.773Z,75.00
2018-02-01T13:04:55.159Z,75.85
2018-02-01T13:07:22.578Z,74.66
2018-02-01T13:09:49.998Z,74.02
2018-02-01T13:12:17.375Z,74.11
2018-02-01T13:14:44.858Z,75.77
2018-02-01T13:17:12.246Z,76.44
2018-02-01T13:19:39.732Z,75.79
2018-02-01T13:22:07.087Z,77.44
2018-02-01T13:24:34.466Z,78.59
2018-02-01T13:27:01.865Z,78.99
2018-02-01T13:29:29.305Z,79.32
2018-02-01T13:31:56.727Z,79.42
2018-02-01T13:34:24.147Z,79.93
2018-02-01T13:36:51.575Z,79.98
2018-02-01T13:39:20.636Z,80.82
2018-02-01T13:41:48.145Z,81.40
2018-02-01T13:44:16.341Z,81.11
2018-02-01T13:46:43.763Z,81.74
2018-02-01T13:49:11.192Z,82.13
2018-02-01T13:51:38.614Z,83.27
2018-02-01T13:54:06.050Z,82.83
2018-02-01T13:56:33.494Z,82.20
2018-02-01T13:59:00.951Z,82.81
2018-02-01T14:01:28.360Z,82.64
2018-02-01T14:03:55.743Z,82.21
2018-02-01T14:06:23.202Z,83.04
2018-02-01T14:08:50.611Z,83.28
2018-02-01T14:11:18.060Z,82.17
2018-02-01T14:13:45.449Z,81.84
2018-02-01T14:16:12.899Z,81.74
2018-02-01T14:18:40.407Z,82.22
2018-02-01T14:21:07.893Z,82.49
2018-02-01T14:23:35.270Z,82.36
2018-02-01T14:26:02.706Z,83.25
2018-02-01T14:28:30.103Z,83.06
2018-02-01T14:30:57.542Z,82.69
2018-02-01T14:33:24.998Z,82.32
2018-02-01T14:35:52.409Z,82.24
2018-02-01T14:38:19.777Z,82.34
2018-02-01T14:40:47.173Z,82.65
2018-02-01T14:43:14.578Z,82.90
2018-02-01T14:45:41.950Z,82.38
2018-02-01T14:48:09.340Z,82.69
2018-02-01T14:50:36.743Z,83.06
2018-02-01T14:53:04.138Z,82.74
2018-02-01T14:55:31.630Z,82.56
2018-02-01T14:57:59.025Z,82.57
2018-02-01T15:00:26.418Z,82.96
2018-02-01T15:02:53.798Z,82.59
2018-02-01T15:05:21.202Z,82.68
2018-02-01T15:07:48.651Z,82.43
2018-02-01T15:10:16.076Z,81.63
2018-02-01T15:12:43.466Z,82.15
2018-02-01T15:15:10.852Z,82.29
2018-02-01T15:17:38.252Z,83.02
2018-02-01T15:20:05.634Z,83.30
2018-02-01T15:22:33.039Z,81.99
2018-02-01T15:25:00.447Z,81.72
2018-02-01T15:27:27.838Z,82.40
2018-02-01T15:29:55.223Z,82.87
2018-02-01T15:32:22.619Z,82.80
2018-02-01T15:34:50.004Z,82.78
2018-02-01T15:37:17.394Z,82.71
2018-02-01T15:39:45.736Z,82.65
2018-02-01T15:42:13.122Z,82.39
2018-02-01T15:44:40.515Z,81.81
2018-02-01T15:47:07.923Z,81.55
2018-02-01T15:49:35.297Z,81.86
2018-02-01T15:52:02.722Z,82.25
2018-02-01T15:54:30.169Z,82.40
2018-02-01T15:56:57.572Z,82.66
2018-02-01T15:59:24.950Z,82.00
2018-02-01T16:01:52.359Z,81.70
2018-02-01T16:04:19.761Z,81.48
2018-02-01T16:06:47.524Z,81.56
2018-02-01T16:09:14.978Z,81.80
2018-02-01T16:11:42.372Z,81.80
2018-02-01T16:14:09.771Z,81.74
2018-02-01T16:16:37.167Z,82.34
2018-02-01T16:19:04.589Z,82.06
2018-02-01T16:21:31.978Z,81.37
2018-02-01T16:23:59.387Z,81.16
2018-02-01T16:26:26.841Z,81.48
2018-02-01T16:28:54.222Z,82.10
2018-02-01T16:31:21.627Z,81.18
2018-02-01T16:33:49.010Z,81.24
2018-02-01T16:36:17.227Z,81.22
2018-02-01T16:38:44.730Z,80.68
2018-02-01T16:41:12.126Z,80.56
2018-02-01T16:43:39.539Z,81.77
2018-02-01T16:46:06.958Z,81.93
2018-02-01T16:48:34.354Z,81.66
2018-02-01T16:51:01.978Z,81.79
2018-02-01T16:53:29.470Z,81.73
2018-02-01T16:55:56.857Z,82.47
2018-02-01T16:58:24.263Z,83.43
2018-02-01T17:00:51.660Z,83.12
2018-02-01T17:03:19.171Z,82.88
2018-02-01T17:05:46.583Z,82.92
2018-02-01T17:08:13.972Z,83.13
2018-02-01T17:10:41.354Z,83.57
2018-02-01T17:13:08.774Z,84.47
2018-02-01T17:15:36.161Z,83.84
2018-02-01T17:18:03.592Z,83.71
2018-02-01T17:20:31.002Z,83.72
2018-02-01T17:22:58.398Z,83.76
2018-02-01T17:25:25.781Z,83.73
2018-02-01T17:27:53.225Z,83.61
2018-02-01T17:30:20.598Z,83.88
2018-02-01T17:32:48.067Z,83.92
2018-02-01T17:35:15.457Z,83.96
2018-02-01T17:37:42.862Z,84.67
2018-02-01T17:40:10.270Z,84.80
2018-02-01T17:42:37.676Z,85.20
2018-02-01T17:45:05.068Z,84.73
2018-02-01T17:47:32.519Z,85.04
2018-02-01T17:50:00.009Z,85.30
2018-02-01T17:52:27.431Z,84.91
2018-02-01T17:54:54.846Z,84.49
2018-02-01T17:57:22.238Z,84.73
2018-02-01T17:59:49.624Z,84.67
2018-02-01T18:02:17.018Z,84.42
2018-02-01T18:04:44.416Z,84.47
2018-02-01T18:07:11.854Z,84.27
2018-02-01T18:09:39.256Z,83.77
2018-02-01T18:12:06.813Z,83.42
2018-02-01T18:14:34.239Z,83.34
2018-02-01T18:17:01.728Z,82.73
2018-02-01T18:19:29.114Z,83.84
2018-02-01T18:21:56.535Z,83.28
2018-02-01T18:24:23.919Z,83.62
2018-02-01T18:26:51.342Z,83.23
2018-02-01T18:29:18.727Z,83.77
2018-02-01T18:31:46.138Z,83.95
2018-02-01T18:34:13.534Z,83.46
2018-02-01T18:36:41.791Z,84.06
2018-02-01T18:39:09.182Z,84.34
2018-02-01T18:41:36.685Z,83.73
2018-02-01T18:44:04.142Z,84.78
2018-02-01T18:46:31.538Z,85.23
2018-02-01T18:48:58.954Z,85.14
2018-02-01T18:51:26.346Z,84.35
2018-02-01T18:53:53.789Z,85.32
2018-02-01T18:56:21.179Z,85.31
2018-02-01T18:58:48.594Z,86.52
2018-02-01T19:01:15.987Z,86.91
2018-02-01T19:03:43.454Z,86.26
2018-02-01T19:06:10.954Z,86.55
2018-02-01T19:08:38.363Z,87.38
2018-02-01T19:11:05.759Z,87.27
2018-02-01T19:13:33.151Z,86.70
2018-02-01T19:16:00.546Z,86.59
2018-02-01T19:18:27.966Z,86.61
2018-02-01T19:20:55.423Z,86.74
2018-02-01T19:23:22.743Z,86.14
2018-02-01T19:25:50.134Z,86.21
2018-02-01T19:28:17.527Z,85.93
2018-02-01T19:30:44.938Z,85.16
2018-02-01T19:33:12.334Z,85.68
2018-02-01T19:35:39.739Z,86.16
2018-02-01T19:38:07.138Z,86.86
2018-02-01T19:40:34.559Z,86.14
2018-02-01T19:43:01.969Z,86.84
2018-02-01T19:45:29.366Z,86.55
2018-02-01T19:47:56.771Z,86.06
2018-02-01T19:50:24.182Z,86.21
2018-02-01T19:52:51.594Z,85.96
2018-02-01T19:55:18.987Z,86.07
2018-02-01T19:57:46.423Z,86.50
2018-02-01T20:00:13.821Z,86.84
2018-02-01T20:02:41.211Z,86.33
2018-02-01T20:05:08.599Z,86.36
2018-02-01T20:07:35.992Z,86.65
2018-02-01T20:10:03.389Z,86.35
2018-02-01T20:12:30.795Z,86.01
2018-02-01T20:14:58.233Z,85.67
2018-02-01T20:17:25.654Z,85.00
2018-02-01T20:19:53.040Z,85.03
2018-02-01T20:22:20.434Z,85.70
2018-02-01T20:24:47.911Z,85.83
2018-02-01T20:27:15.314Z,85.87
2018-02-01T20:29:42.711Z,86.01
2018-02-01T20:32:10.101Z,86.18
2018-02-01T20:34:37.504Z,86.00
2018-02-01T20:37:04.914Z,85.50
2018-02-01T20:39:32.323Z,84.85
2018-02-01T20:41:59.714Z,84.36
2018-02-01T20:44:27.380Z,83.82
2018-02-01T20:46:55.713Z,83.97
2018-02-01T20:49:23.090Z,84.28
2018-02-01T20:51:50.507Z,84.09
2018-02-01T20:54:17.916Z,84.08
2018-02-01T20:56:45.293Z,84.25
2018-02-01T20:59:12.706Z,84.75
2018-02-01T21:01:40.306Z,85.14
2018-02-01T21:04:07.702Z,85.34
2018-02-01T21:06:35.094Z,85.15
2018-02-01T21:09:02.514Z,84.92
2018-02-01T21:11:29.903Z,84.78
2018-02-01T21:13:57.302Z,84.07
2018-02-01T21:16:24.690Z,83.94
2018-02-01T21:18:52.131Z,84.06
2018-02-01T21:21:19.522Z,84.18
2018-02-01T21:23:46.956Z,84.39
2018-02-01T21:26:14.369Z,84.26
2018-02-01T21:28:41.876Z,84.92
2018-02-01T21:31:09.318Z,85.56
2018-02-01T21:33:36.715Z,85.50
2018-02-01T21:36:04.114Z,85.33
2018-02-01T21:38:31.526Z,85.46
2018-02-01T21:40:58.918Z,85.71
2018-02-01T21:43:26.315Z,85.66
2018-02-01T21:45:53.713Z,85.55
2018-02-01T21:48:21.112Z,85.88
2018-02-01T21:50:48.502Z,85.90
2018-02-01T21:53:15.931Z,85.71
2018-02-01T21:55:43.332Z,85.26
2018-02-01T21:58:10.722Z,85.13
2018-02-01T22:00:38.130Z,85.33
2018-02-01T22:03:05.533Z,86.03
2018-02-01T22:05:32.988Z,86.18
2018-02-01T22:08:00.448Z,85.11
2018-02-01T22:10:27.831Z,84.99
2018-02-01T22:12:55.298Z,85.97
2018-02-01T22:15:22.688Z,86.75
2018-02-01T22:17:50.102Z,86.68
2018-02-01T22:20:17.506Z,86.55
2018-02-01T22:22:44.917Z,86.00
2018-02-01T22:25:12.334Z,86.13
2018-02-01T22:27:39.799Z,86.26
2018-02-01T22:30:07.352Z,86.62
2018-02-01T22:32:34.745Z,86.35
2018-02-01T22:35:02.143Z,86.37
2018-02-01T22:37:29.530Z,86.30
2018-02-01T22:39:56.932Z,86.53
2018-02-01T22:42:24.335Z,86.40
2018-02-01T22:44:51.732Z,86.95
2018-02-01T22:47:19.170Z,86.98
2018-02-01T22:49:46.714Z,87.30
2018-02-01T22:52:14.114Z,86.62
2018-02-01T22:54:41.497Z,87.34
2018-02-01T22:57:08.878Z,87.07
2018-02-01T22:59:36.297Z,87.15
2018-02-01T23:02:03.686Z,87.25
2018-02-01T23:04:31.085Z,87.12
2018-02-01T23:06:58.478Z,86.99
2018-02-01T23:09:25.878Z,87.01
2018-02-01T23:11:53.289Z,86.59
2018-02-01T23:14:20.670Z,86.58
2018-02-01T23:16:48.099Z,86.82
2018-02-01T23:19:15.522Z,86.54
2018-02-01T23:21:42.912Z,86.73
2018-02-01T23:24:10.308Z,86.68
2018-02-01T23:26:37.694Z,86.62
2018-02-01T23:29:05.197Z,86.55
2018-02-01T23:31:32.617Z,86.27
2018-02-01T23:34:00.015Z,85.61
2018-02-01T23:36:27.403Z,85.28
2018-02-01T23:38:54.800Z,85.15
2018-02-01T23:41:22.186Z,85.24
2018-02-01T23:43:49.612Z,85.05
2018-02-01T23:46:17.071Z,84.87
2018-02-01T23:48:44.540Z,84.71
2018-02-01T23:51:11.924Z,84.83
2018-02-01T23:53:39.324Z,85.00
2018-02-01T23:56:06.711Z,85.21
2018-02-01T23:58:34.127Z,84.70
